Time;durP1;ratioP1;P1;durP2;ratioP2;P2;SDS_P1;SDS_P2;PMS_P1;PMS_P2;Temp;Humidity;BMP_temperature;BMP_pressure;BME280_temperature;BME280_humidity;BME280_pressure;Samples;Min_cycle;Max_cycle;Signal;HPM_P1;HPM_P2
2021/10/21 00:00:22;;;;;;;0.40;0.40;;;17.40;94.30;;;;;;5015941;28;20483;-68
2021/10/21 00:02:47;;;;;;;0.60;0.50;;;17.40;94.80;;;;;;5016019;28;20417;-66
2021/10/21 00:05:13;;;;;;;0.30;0.30;;;17.30;93.90;;;;;;5015988;28;20186;-69
2021/10/21 00:07:39;;;;;;;0.30;0.30;;;17.10;94.90;;;;;;5015980;28;20638;-68
2021/10/21 00:10:06;;;;;;;0.60;0.60;;;17.20;94.60;;;;;;5015795;28;20848;-70
2021/10/21 00:12:32;;;;;;;0.30;0.30;;;17.30;94.00;;;;;;5015724;28;20542;-70
2021/10/21 00:14:59;;;;;;;0.30;0.30;;;17.30;94.40;;;;;;5015535;28;20415;-69
2021/10/21 00:17:26;;;;;;;0.40;0.40;;;17.40;94.50;;;;;;5015836;28;20434;-68
2021/10/21 00:19:53;;;;;;;0.40;0.40;;;17.00;95.20;;;;;;5015607;28;20827;-69
2021/10/21 00:22:19;;;;;;;0.30;0.30;;;16.80;95.90;;;;;;5015474;28;20549;-67
2021/10/21 00:24:45;;;;;;;0.30;0.30;;;16.90;96.40;;;;;;5015522;28;20857;-70
2021/10/21 00:27:10;;;;;;;0.30;0.30;;;17.00;96.90;;;;;;5015287;28;20885;-69
2021/10/21 00:29:36;;;;;;;0.97;0.60;;;16.90;97.60;;;;;;5015292;28;20545;-70
2021/10/21 00:32:02;;;;;;;0.50;0.50;;;16.90;98.30;;;;;;5015465;28;20625;-71
2021/10/21 00:34:27;;;;;;;0.30;0.30;;;16.80;99.20;;;;;;5015399;28;20182;-70
2021/10/21 00:36:53;;;;;;;0.30;0.30;;;16.70;99.50;;;;;;5015285;28;20825;-69
2021/10/21 00:39:19;;;;;;;0.30;0.30;;;16.70;99.50;;;;;;5015398;28;20175;-70
2021/10/21 00:41:44;;;;;;;0.30;0.30;;;16.40;99.90;;;;;;5015099;28;20195;-67
2021/10/21 00:44:12;;;;;;;0.30;0.30;;;16.40;99.40;;;;;;5015352;28;20217;-70
2021/10/21 00:46:41;;;;;;;0.30;0.30;;;16.40;99.90;;;;;;5014999;28;20172;-69
2021/10/21 00:49:08;;;;;;;0.30;0.30;;;16.40;99.90;;;;;;5015132;28;20520;-71
2021/10/21 00:51:34;;;;;;;0.30;0.30;;;16.50;99.90;;;;;;5014898;28;20453;-69
2021/10/21 00:54:01;;;;;;;0.30;0.30;;;16.40;99.90;;;;;;5015435;28;20411;-69
2021/10/21 00:56:28;;;;;;;0.30;0.30;;;16.40;99.90;;;;;;5014502;28;20419;-70
2021/10/21 00:58:54;;;;;;;0.30;0.30;;;16.40;99.90;;;;;;5015053;28;20413;-69
2021/10/21 01:01:21;;;;;;;0.30;0.30;;;16.20;99.90;;;;;;5014884;28;20459;-70
2021/10/21 01:03:47;;;;;;;0.40;0.40;;;16.20;99.90;;;;;;5014874;28;20415;-69
2021/10/21 01:06:13;;;;;;;0.30;0.30;;;16.10;99.90;;;;;;5014534;28;20414;-69
2021/10/21 01:08:40;;;;;;;0.70;0.70;;;16.10;99.90;;;;;;5014784;28;20438;-70
2021/10/21 01:11:06;;;;;;;0.40;0.40;;;16.00;99.90;;;;;;5014733;28;20505;-67
2021/10/21 01:13:32;;;;;;;0.30;0.30;;;16.00;99.90;;;;;;5014624;28;20775;-68
2021/10/21 01:16:10;;;;;;;0.30;0.30;;;16.00;99.90;;;;;;5014467;28;20394;-69
2021/10/21 01:18:37;;;;;;;8.33;1.20;;;15.90;99.90;;;;;;5014477;28;20176;-70
2021/10/21 01:21:04;;;;;;;0.30;0.30;;;15.80;99.90;;;;;;5014383;28;20995;-68
2021/10/21 01:23:30;;;;;;;0.30;0.30;;;15.70;99.90;;;;;;5014486;28;20420;-70
2021/10/21 01:25:56;;;;;;;0.50;0.50;;;15.50;99.90;;;;;;5014288;28;20399;-69
2021/10/21 01:28:22;;;;;;;0.30;0.30;;;15.40;99.90;;;;;;5014348;28;20411;-70
2021/10/21 01:30:48;;;;;;;0.30;0.30;;;15.30;99.90;;;;;;5014199;28;20497;-67
2021/10/21 01:33:14;;;;;;;0.70;0.70;;;15.40;99.90;;;;;;5014198;28;20173;-70
2021/10/21 01:35:40;;;;;;;0.30;0.30;;;15.50;99.90;;;;;;5014062;28;20398;-70
2021/10/21 01:38:06;;;;;;;0.30;0.30;;;15.50;99.90;;;;;;5012970;28;20414;-69
2021/10/21 01:40:32;;;;;;;0.83;0.83;;;15.70;99.90;;;;;;5014127;28;20564;-68
2021/10/21 01:42:58;;;;;;;0.30;0.30;;;15.70;99.90;;;;;;5014227;28;20184;-69
2021/10/21 01:45:27;;;;;;;0.30;0.30;;;15.80;99.90;;;;;;5013949;28;20406;-67
2021/10/21 01:47:53;;;;;;;0.30;0.30;;;15.60;99.90;;;;;;5014192;28;20194;-69
2021/10/21 01:50:19;;;;;;;0.30;0.30;;;15.50;99.90;;;;;;5013829;28;20458;-70
2021/10/21 01:52:45;;;;;;;0.30;0.30;;;15.40;99.90;;;;;;5014367;28;20263;-69
2021/10/21 01:55:12;;;;;;;0.30;0.30;;;15.40;99.90;;;;;;5013841;28;20436;-69
2021/10/21 01:57:39;;;;;;;0.30;0.30;;;15.50;99.90;;;;;;5014017;28;20481;-68
2021/10/21 02:00:07;;;;;;;0.30;0.30;;;15.40;99.90;;;;;;5013966;28;20426;-69
2021/10/21 02:02:33;;;;;;;0.30;0.30;;;15.40;99.90;;;;;;5013708;28;20476;-70
2021/10/21 02:04:59;;;;;;;0.70;0.70;;;15.30;99.90;;;;;;5013602;28;20875;-70
2021/10/21 02:07:24;;;;;;;0.30;0.30;;;15.30;99.90;;;;;;5013179;28;20176;-68
2021/10/21 02:09:50;;;;;;;0.30;0.30;;;15.20;99.90;;;;;;5013784;28;20211;-70
2021/10/21 02:12:15;;;;;;;0.30;0.30;;;15.20;99.90;;;;;;5013818;28;20205;-69
2021/10/21 02:14:41;;;;;;;0.40;0.40;;;15.20;99.90;;;;;;5013646;28;20171;-69
2021/10/21 02:17:07;;;;;;;0.30;0.30;;;14.70;99.90;;;;;;5013658;28;20185;-68
2021/10/21 02:19:34;;;;;;;0.30;0.30;;;14.60;99.90;;;;;;5012336;28;20191;-68
2021/10/21 02:22:00;;;;;;;0.40;0.40;;;14.60;99.90;;;;;;5013791;28;20171;-68
2021/10/21 02:24:25;;;;;;;0.30;0.30;;;14.50;99.90;;;;;;5011577;28;21082;-67
2021/10/21 02:26:51;;;;;;;0.30;0.30;;;14.40;99.90;;;;;;5013110;28;20477;-67
2021/10/21 02:29:17;;;;;;;0.40;0.40;;;14.40;99.90;;;;;;5012664;28;20194;-68
2021/10/21 02:31:42;;;;;;;0.30;0.30;;;14.30;99.90;;;;;;5013750;28;20191;-70
2021/10/21 02:34:08;;;;;;;0.30;0.30;;;14.30;99.90;;;;;;5012656;28;20167;-70
2021/10/21 02:36:34;;;;;;;0.30;0.30;;;14.20;99.90;;;;;;5013681;28;20535;-68
2021/10/21 02:39:00;;;;;;;0.30;0.30;;;14.00;99.90;;;;;;5013109;28;20168;-68
2021/10/21 02:41:26;;;;;;;0.30;0.30;;;14.00;99.90;;;;;;5013528;28;20422;-69
2021/10/21 02:43:52;;;;;;;0.30;0.30;;;14.10;99.90;;;;;;5014102;28;20395;-70
2021/10/21 02:46:19;;;;;;;0.30;0.30;;;13.90;99.90;;;;;;5013336;28;20464;-69
2021/10/21 02:48:44;;;;;;;0.30;0.30;;;13.90;99.90;;;;;;5012647;28;20698;-69
2021/10/21 02:51:10;;;;;;;0.30;0.30;;;13.90;99.90;;;;;;5012219;28;20453;-70
2021/10/21 02:53:36;;;;;;;0.30;0.30;;;13.90;99.90;;;;;;5012507;28;20164;-70
2021/10/21 02:56:03;;;;;;;0.30;0.30;;;14.00;99.90;;;;;;5013270;28;20197;-71
2021/10/21 02:58:29;;;;;;;0.30;0.30;;;14.00;99.90;;;;;;5014007;28;20562;-72
2021/10/21 03:00:54;;;;;;;0.30;0.30;;;14.00;99.90;;;;;;5013269;28;20438;-70
2021/10/21 03:03:20;;;;;;;0.30;0.30;;;14.00;99.90;;;;;;5012167;28;20167;-70
2021/10/21 03:05:46;;;;;;;0.30;0.30;;;14.00;99.90;;;;;;5013061;28;20200;-70
2021/10/21 03:08:11;;;;;;;0.30;0.30;;;14.00;99.90;;;;;;5013888;28;20535;-72
2021/10/21 03:10:37;;;;;;;0.30;0.30;;;14.10;99.90;;;;;;5028394;28;20208;-72
2021/10/21 03:13:03;;;;;;;0.30;0.30;;;14.00;99.90;;;;;;5013909;28;20169;-70
2021/10/21 03:15:29;;;;;;;0.30;0.30;;;14.00;99.90;;;;;;5012318;28;20617;-69
2021/10/21 03:17:56;;;;;;;0.30;0.30;;;13.80;99.90;;;;;;5013287;28;20413;-71
2021/10/21 03:20:22;;;;;;;0.30;0.30;;;13.60;99.90;;;;;;5013828;28;20595;-70
2021/10/21 03:22:48;;;;;;;0.30;0.30;;;13.40;99.90;;;;;;5016906;28;20403;-69
2021/10/21 03:25:13;;;;;;;0.30;0.30;;;13.30;99.90;;;;;;5016871;28;20545;-70
2021/10/21 03:27:39;;;;;;;0.30;0.30;;;13.10;99.90;;;;;;5017133;28;20406;-71
2021/10/21 03:30:06;;;;;;;0.30;0.30;;;13.10;99.90;;;;;;5016903;28;20214;-71
2021/10/21 03:32:33;;;;;;;0.30;0.30;;;12.80;99.90;;;;;;5016872;28;20497;-71
2021/10/21 03:34:59;;;;;;;0.30;0.30;;;12.60;99.90;;;;;;5016727;28;20810;-70
2021/10/21 03:37:25;;;;;;;0.30;0.30;;;12.50;99.90;;;;;;5016797;28;20403;-69
2021/10/21 03:39:54;;;;;;;0.30;0.30;;;12.30;99.90;;;;;;5016869;28;20434;-70
2021/10/21 03:42:22;;;;;;;0.30;0.30;;;12.00;99.90;;;;;;5013056;28;20429;-68
2021/10/21 03:44:49;;;;;;;0.30;0.30;;;11.90;99.90;;;;;;5014753;28;20880;-69
2021/10/21 03:47:16;;;;;;;0.30;0.30;;;11.80;99.90;;;;;;5015160;28;20805;-69
2021/10/21 03:49:42;;;;;;;0.30;0.30;;;11.60;99.90;;;;;;5016316;28;20496;-69
2021/10/21 03:52:08;;;;;;;0.30;0.30;;;11.60;99.90;;;;;;5016953;28;20242;-69
2021/10/21 03:54:33;;;;;;;0.30;0.30;;;11.60;99.90;;;;;;5016621;28;20395;-69
2021/10/21 03:56:59;;;;;;;0.30;0.30;;;11.50;99.90;;;;;;5015825;28;20417;-70
2021/10/21 03:59:25;;;;;;;0.30;0.30;;;11.50;99.90;;;;;;5016299;28;20230;-68
2021/10/21 04:01:53;;;;;;;0.30;0.30;;;11.50;99.90;;;;;;5016233;28;20176;-69
2021/10/21 04:04:19;;;;;;;0.30;0.30;;;11.30;99.90;;;;;;5016392;28;20195;-68
2021/10/21 04:06:45;;;;;;;0.30;0.30;;;11.30;99.90;;;;;;5016180;28;20250;-70
2021/10/21 04:09:11;;;;;;;0.30;0.30;;;11.10;99.90;;;;;;5016091;28;20843;-68
2021/10/21 04:11:36;;;;;;;0.30;0.30;;;11.10;99.90;;;;;;5016080;28;20188;-69
2021/10/21 04:14:02;;;;;;;0.30;0.30;;;11.00;99.90;;;;;;5015755;28;20461;-67
2021/10/21 04:16:28;;;;;;;0.30;0.30;;;11.10;99.90;;;;;;5015565;28;20266;-68
2021/10/21 04:18:54;;;;;;;0.30;0.30;;;11.00;99.90;;;;;;5015741;28;20203;-66
2021/10/21 04:21:20;;;;;;;0.30;0.30;;;10.70;99.90;;;;;;5013368;28;20195;-67
2021/10/21 04:23:46;;;;;;;0.30;0.30;;;10.50;99.90;;;;;;5015712;28;20766;-67
2021/10/21 04:26:12;;;;;;;0.30;0.30;;;10.70;99.90;;;;;;5015430;28;20167;-67
2021/10/21 04:28:37;;;;;;;0.30;0.30;;;10.70;99.90;;;;;;5015411;28;20805;-67
2021/10/21 04:31:04;;;;;;;0.30;0.30;;;10.70;99.90;;;;;;5014749;28;20195;-67
2021/10/21 04:33:30;;;;;;;0.30;0.30;;;10.80;99.90;;;;;;5015603;28;20533;-67
2021/10/21 04:35:55;;;;;;;0.30;0.30;;;11.00;99.90;;;;;;5015141;28;20179;-67
2021/10/21 04:38:21;;;;;;;0.30;0.30;;;11.10;99.90;;;;;;5015487;28;20574;-66
2021/10/21 04:40:47;;;;;;;0.30;0.30;;;11.00;99.90;;;;;;5014103;28;20195;-67
2021/10/21 04:43:13;;;;;;;0.30;0.30;;;11.10;99.90;;;;;;5015197;28;20171;-67
2021/10/21 04:45:39;;;;;;;0.40;0.40;;;11.10;99.90;;;;;;5015185;28;20457;-66
2021/10/21 04:48:04;;;;;;;0.30;0.30;;;11.10;99.90;;;;;;5015205;28;20187;-67
2021/10/21 04:50:30;;;;;;;0.30;0.30;;;11.20;99.90;;;;;;5014805;28;20211;-67
2021/10/21 04:52:56;;;;;;;0.30;0.30;;;11.00;99.90;;;;;;5015001;28;20406;-67
2021/10/21 04:55:25;;;;;;;0.30;0.30;;;10.80;99.70;;;;;;5014832;28;20167;-67
2021/10/21 04:57:52;;;;;;;0.30;0.30;;;10.50;99.70;;;;;;5014953;28;20214;-67
2021/10/21 05:00:19;;;;;;;0.30;0.30;;;10.60;99.90;;;;;;5014761;28;20241;-67
2021/10/21 05:02:46;;;;;;;0.30;0.30;;;10.60;99.90;;;;;;5014929;28;20179;-67
2021/10/21 05:05:12;;;;;;;0.30;0.30;;;10.80;99.90;;;;;;5014735;28;20723;-67
2021/10/21 05:07:38;;;;;;;0.30;0.30;;;11.10;99.90;;;;;;5013944;28;20535;-67
2021/10/21 05:10:05;;;;;;;0.30;0.30;;;11.20;98.70;;;;;;5014779;28;20210;-66
2021/10/21 05:12:30;;;;;;;0.30;0.30;;;11.00;99.10;;;;;;5014892;28;20180;-66
2021/10/21 05:14:56;;;;;;;0.30;0.30;;;11.10;99.50;;;;;;5014455;28;20188;-67
2021/10/21 05:17:22;;;;;;;0.30;0.30;;;11.10;98.60;;;;;;5014964;28;20168;-68
2021/10/21 05:19:48;;;;;;;0.30;0.30;;;11.30;98.30;;;;;;5014056;28;20819;-67
2021/10/21 05:22:13;;;;;;;0.30;0.30;;;11.40;98.60;;;;;;5014371;28;20417;-68
2021/10/21 05:24:39;;;;;;;0.30;0.30;;;11.40;98.10;;;;;;5015159;28;20621;-69
2021/10/21 05:27:05;;;;;;;0.30;0.30;;;11.30;98.50;;;;;;5014214;28;20222;-69
2021/10/21 05:29:30;;;;;;;0.30;0.30;;;11.20;98.40;;;;;;5014218;28;20229;-68
2021/10/21 05:31:56;;;;;;;0.30;0.30;;;11.20;98.70;;;;;;5014765;28;20192;-68
2021/10/21 05:34:22;;;;;;;0.30;0.30;;;11.20;98.00;;;;;;5014756;28;20426;-67
2021/10/21 05:36:48;;;;;;;0.30;0.30;;;11.10;98.50;;;;;;5013323;28;20407;-67
2021/10/21 05:39:14;;;;;;;0.30;0.30;;;11.10;98.20;;;;;;5014435;28;20531;-67
2021/10/21 05:41:41;;;;;;;0.30;0.30;;;11.10;98.50;;;;;;5014006;28;20219;-68
2021/10/21 05:44:06;;;;;;;0.30;0.30;;;11.10;98.30;;;;;;5013741;28;20625;-67
2021/10/21 05:46:32;;;;;;;0.40;0.40;;;11.20;97.70;;;;;;5014347;28;20189;-67
2021/10/21 05:48:58;;;;;;;0.30;0.30;;;11.40;97.70;;;;;;5013969;28;20199;-67
2021/10/21 05:51:24;;;;;;;0.30;0.30;;;11.40;97.70;;;;;;5013894;28;20710;-67
2021/10/21 05:53:49;;;;;;;0.30;0.30;;;11.50;98.00;;;;;;5013560;28;20775;-67
2021/10/21 05:56:15;;;;;;;0.30;0.30;;;11.60;97.20;;;;;;5014104;28;20191;-67
2021/10/21 05:58:41;;;;;;;0.30;0.30;;;11.70;96.80;;;;;;5014660;28;20178;-68
2021/10/21 06:01:07;;;;;;;0.30;0.30;;;11.80;97.50;;;;;;5013869;28;20795;-67
2021/10/21 06:03:36;;;;;;;0.30;0.30;;;11.90;96.50;;;;;;5014441;28;20222;-67
2021/10/21 06:06:03;;;;;;;0.40;0.40;;;12.00;96.90;;;;;;5013970;28;20429;-67
2021/10/21 06:08:29;;;;;;;0.30;0.30;;;12.10;96.00;;;;;;5013902;28;20881;-67
2021/10/21 06:10:55;;;;;;;0.30;0.30;;;12.20;96.00;;;;;;5012977;28;20211;-66
2021/10/21 06:13:24;;;;;;;0.30;0.30;;;12.10;95.40;;;;;;5014076;28;20214;-69
2021/10/21 06:15:51;;;;;;;0.30;0.30;;;11.90;95.20;;;;;;5012459;28;20175;-67
2021/10/21 06:18:17;;;;;;;0.30;0.30;;;11.90;96.40;;;;;;5014321;28;20403;-67
2021/10/21 06:20:42;;;;;;;0.30;0.30;;;11.90;95.90;;;;;;5013904;28;20317;-67
2021/10/21 06:23:08;;;;;;;0.30;0.30;;;11.60;95.20;;;;;;5013793;28;20670;-67
2021/10/21 06:25:34;;;;;;;0.30;0.30;;;11.60;95.40;;;;;;5013575;28;20175;-66
2021/10/21 06:28:00;;;;;;;0.30;0.30;;;11.60;95.70;;;;;;5013856;28;20179;-67
2021/10/21 06:30:25;;;;;;;0.30;0.30;;;11.60;95.70;;;;;;5012428;28;20454;-67
2021/10/21 06:32:51;;;;;;;0.30;0.30;;;11.70;96.30;;;;;;5014168;28;20164;-71
2021/10/21 06:35:17;;;;;;;0.30;0.30;;;11.60;95.30;;;;;;5013689;28;20172;-67
2021/10/21 06:37:49;;;;;;;0.30;0.30;;;11.60;95.70;;;;;;5013822;28;20398;-68
2021/10/21 06:40:16;;;;;;;0.30;0.30;;;11.60;95.00;;;;;;5013503;28;20238;-69
2021/10/21 06:42:42;;;;;;;0.30;0.30;;;11.70;96.00;;;;;;5013545;28;20187;-68
2021/10/21 06:45:10;;;;;;;0.30;0.30;;;11.50;95.50;;;;;;5013296;28;20183;-67
2021/10/21 06:47:41;;;;;;;0.30;0.30;;;11.50;95.80;;;;;;5013419;28;20172;-68
2021/10/21 06:50:09;;;;;;;0.30;0.30;;;11.20;96.00;;;;;;5013378;28;20203;-67
2021/10/21 06:52:36;;;;;;;0.30;0.30;;;11.20;96.10;;;;;;5013699;28;20174;-68
2021/10/21 06:55:02;;;;;;;0.30;0.30;;;11.30;95.90;;;;;;5016232;28;20178;-68
2021/10/21 06:57:28;;;;;;;0.30;0.30;;;11.40;95.90;;;;;;5017598;28;20202;-67
2021/10/21 06:59:53;;;;;;;0.30;0.30;;;11.40;96.20;;;;;;5017685;28;20187;-68
2021/10/21 07:02:19;;;;;;;0.30;0.30;;;11.30;96.30;;;;;;5017039;28;20175;-67
2021/10/21 07:04:45;;;;;;;0.30;0.30;;;11.50;96.00;;;;;;5017088;28;20179;-67
2021/10/21 07:07:10;;;;;;;0.30;0.30;;;11.50;95.30;;;;;;5016901;28;20164;-66
2021/10/21 07:09:36;;;;;;;0.40;0.40;;;11.60;95.30;;;;;;5017425;28;20669;-67
2021/10/21 07:12:02;;;;;;;0.30;0.30;;;11.70;95.70;;;;;;5017361;28;20172;-66
2021/10/21 07:14:28;;;;;;;0.30;0.30;;;11.80;95.40;;;;;;5016955;28;20171;-66
2021/10/21 07:16:54;;;;;;;0.30;0.30;;;11.80;94.80;;;;;;5016643;28;20250;-66
2021/10/21 07:19:20;;;;;;;0.40;0.40;;;11.80;95.00;;;;;;5017436;28;20979;-66
2021/10/21 07:21:45;;;;;;;0.30;0.30;;;11.80;94.80;;;;;;5016710;28;20238;-66
2021/10/21 07:24:11;;;;;;;0.30;0.30;;;11.80;95.30;;;;;;5017224;28;20199;-67
2021/10/21 07:26:36;;;;;;;0.40;0.40;;;11.80;94.90;;;;;;5016535;28;20258;-69
2021/10/21 07:29:02;;;;;;;0.30;0.30;;;11.70;94.60;;;;;;5016554;28;20660;-68
2021/10/21 07:31:28;;;;;;;0.30;0.30;;;11.90;95.20;;;;;;5016528;28;20192;-68
2021/10/21 07:33:53;;;;;;;0.30;0.30;;;12.00;94.50;;;;;;5016455;28;20226;-68
2021/10/21 07:36:20;;;;;;;0.30;0.30;;;12.20;95.00;;;;;;5016295;28;20218;-68
2021/10/21 07:38:46;;;;;;;0.30;0.30;;;12.10;94.40;;;;;;5016409;28;20580;-66
2021/10/21 07:41:12;;;;;;;0.30;0.30;;;11.90;93.90;;;;;;5016630;28;20191;-68
2021/10/21 07:43:38;;;;;;;0.30;0.30;;;11.70;94.10;;;;;;5016783;28;20214;-66
2021/10/21 07:46:04;;;;;;;0.67;0.67;;;11.80;93.90;;;;;;5016143;28;20772;-67
2021/10/21 07:48:30;;;;;;;0.30;0.30;;;12.00;93.80;;;;;;5016308;28;20453;-68
2021/10/21 07:50:56;;;;;;;0.30;0.30;;;12.10;94.00;;;;;;5016163;28;20493;-68
2021/10/21 07:53:21;;;;;;;0.30;0.30;;;12.00;93.30;;;;;;5016395;28;20417;-68
2021/10/21 07:55:47;;;;;;;0.30;0.30;;;11.90;93.80;;;;;;5014830;28;20497;-66
2021/10/21 07:58:13;;;;;;;0.30;0.30;;;11.90;93.20;;;;;;5016751;28;20179;-66
2021/10/21 08:00:38;;;;;;;0.30;0.30;;;11.70;93.50;;;;;;5016114;28;20241;-67
2021/10/21 08:03:04;;;;;;;0.30;0.30;;;12.00;93.60;;;;;;5014908;28;20606;-67
2021/10/21 08:05:30;;;;;;;0.30;0.30;;;12.20;93.20;;;;;;5014805;28;20422;-66
2021/10/21 08:07:56;;;;;;;0.30;0.30;;;12.20;94.10;;;;;;5015158;28;20164;-67
2021/10/21 08:10:23;;;;;;;0.30;0.30;;;12.10;92.60;;;;;;5016072;28;20462;-67
2021/10/21 08:12:50;;;;;;;0.30;0.30;;;12.10;93.40;;;;;;5016394;28;20438;-66
2021/10/21 08:15:16;;;;;;;0.30;0.30;;;12.40;92.80;;;;;;5015578;28;20413;-67
2021/10/21 08:17:44;;;;;;;0.30;0.30;;;12.70;92.50;;;;;;5015785;28;20457;-67
2021/10/21 08:20:13;;;;;;;0.30;0.30;;;12.60;91.90;;;;;;5015591;28;20444;-67
2021/10/21 08:22:46;;;;;;;0.30;0.30;;;12.50;92.50;;;;;;5016009;28;20406;-66
2021/10/21 08:25:13;;;;;;;0.30;0.30;;;12.40;92.40;;;;;;5015878;28;20441;-65
2021/10/21 08:27:42;;;;;;;0.30;0.30;;;12.50;93.20;;;;;;5015793;28;20186;-66
2021/10/21 08:30:09;;;;;;;0.30;0.30;;;12.70;92.70;;;;;;5015661;28;20621;-66
2021/10/21 08:32:35;;;;;;;0.40;0.40;;;12.40;93.80;;;;;;5013199;28;20974;-66
2021/10/21 08:35:01;;;;;;;0.30;0.30;;;12.30;94.80;;;;;;5015275;28;20394;-67
2021/10/21 08:37:27;;;;;;;0.30;0.30;;;12.40;95.60;;;;;;5014316;28;20469;-68
2021/10/21 08:39:53;;;;;;;0.30;0.30;;;12.30;94.50;;;;;;5015135;28;20434;-67
2021/10/21 08:42:19;;;;;;;0.30;0.30;;;12.20;94.70;;;;;;5015424;28;20199;-67
2021/10/21 08:44:46;;;;;;;0.50;0.50;;;12.20;94.90;;;;;;5014266;28;20410;-67
2021/10/21 08:47:13;;;;;;;0.30;0.30;;;12.20;95.70;;;;;;5015303;28;20175;-67
2021/10/21 08:49:40;;;;;;;0.30;0.30;;;12.20;95.30;;;;;;5012758;28;20947;-67
2021/10/21 08:52:06;;;;;;;0.83;0.80;;;12.00;95.50;;;;;;5014942;28;20266;-67
2021/10/21 08:54:32;;;;;;;0.30;0.30;;;11.90;96.10;;;;;;5015220;28;20847;-67
2021/10/21 08:57:02;;;;;;;0.30;0.30;;;11.70;96.30;;;;;;5013779;28;20168;-66
2021/10/21 08:59:27;;;;;;;0.30;0.30;;;12.20;97.50;;;;;;5015203;28;20413;-69
2021/10/21 09:08:09;;;;;;;0.30;0.30;;;13.50;92.40;;;;;;5015229;28;20521;-67
2021/10/21 09:10:48;;;;;;;0.30;0.30;;;13.60;93.80;;;;;;5014999;28;20491;-69
2021/10/21 09:13:28;;;;;;;0.30;0.30;;;13.50;92.50;;;;;;5015419;28;20478;-67
2021/10/21 09:15:56;;;;;;;0.30;0.30;;;13.50;93.00;;;;;;5013693;28;20398;-67
2021/10/21 09:18:23;;;;;;;0.30;0.30;;;13.30;93.10;;;;;;5014414;28;20399;-67
2021/10/21 09:20:48;;;;;;;0.30;0.30;;;13.10;93.10;;;;;;5013487;28;20488;-67
2021/10/21 09:23:17;;;;;;;0.30;0.30;;;13.20;93.10;;;;;;5014614;28;20973;-67
2021/10/21 09:25:45;;;;;;;0.30;0.30;;;13.20;92.50;;;;;;5014362;28;20179;-68
2021/10/21 09:28:21;;;;;;;0.30;0.30;;;13.50;93.00;;;;;;5013666;28;20406;-68
2021/10/21 09:31:17;;;;;;;0.30;0.30;;;13.70;92.70;;;;;;5014387;28;20785;-67
2021/10/21 09:33:56;;;;;;;0.30;0.30;;;13.50;91.50;;;;;;5018247;28;20430;-69
2021/10/21 09:36:23;;;;;;;0.30;0.30;;;14.30;93.00;;;;;;5014307;28;20903;-67
2021/10/21 09:38:57;;;;;;;0.30;0.30;;;16.40;89.00;;;;;;5014496;28;20408;-67
2021/10/21 09:41:25;;;;;;;0.30;0.30;;;17.40;84.70;;;;;;5014174;28;20426;-67
2021/10/21 09:43:52;;;;;;;0.30;0.30;;;18.60;80.70;;;;;;5014541;28;20414;-67
2021/10/21 09:46:37;;;;;;;0.30;0.30;;;19.80;74.90;;;;;;5013878;28;20425;-67
2021/10/21 09:49:29;;;;;;;0.40;0.40;;;21.40;68.90;;;;;;5014455;28;20443;-67
2021/10/21 09:51:56;;;;;;;0.30;0.30;;;21.70;63.50;;;;;;5014587;28;20389;-67
2021/10/21 09:54:22;;;;;;;0.30;0.30;;;21.30;62.00;;;;;;5014428;28;20398;-68
2021/10/21 09:57:05;;;;;;;0.30;0.30;;;20.50;60.40;;;;;;5014202;28;20396;-68
2021/10/21 09:59:32;;;;;;;0.30;0.30;;;19.20;67.30;;;;;;5014031;28;20393;-68
2021/10/21 10:02:16;;;;;;;0.30;0.30;;;18.00;67.30;;;;;;5013985;28;20399;-67
2021/10/21 10:04:48;;;;;;;0.30;0.30;;;17.20;70.70;;;;;;5013123;28;20399;-67
2021/10/21 10:07:14;;;;;;;0.30;0.30;;;16.70;75.50;;;;;;5014075;28;20791;-68
2021/10/21 10:09:40;;;;;;;0.30;0.30;;;16.80;71.30;;;;;;5013904;28;20484;-66
2021/10/21 10:12:07;;;;;;;0.30;0.30;;;16.50;71.10;;;;;;5013775;28;20471;-68
2021/10/21 10:14:43;;;;;;;0.30;0.30;;;16.00;73.40;;;;;;5014005;28;20256;-68
2021/10/21 10:17:11;;;;;;;0.30;0.30;;;15.80;73.10;;;;;;5013633;28;20403;-66
2021/10/21 10:19:45;;;;;;;0.30;0.30;;;16.20;73.50;;;;;;5013872;28;20403;-67
2021/10/21 10:22:20;;;;;;;0.40;0.40;;;17.00;70.90;;;;;;5013819;28;20406;-68
2021/10/21 10:24:48;;;;;;;0.30;0.30;;;17.00;67.60;;;;;;5013651;28;20951;-68
2021/10/21 10:27:32;;;;;;;0.30;0.30;;;17.90;70.30;;;;;;5013708;28;20414;-68
2021/10/21 10:30:00;;;;;;;0.40;0.40;;;18.30;67.80;;;;;;5016287;28;20481;-68
2021/10/21 10:32:41;;;;;;;0.30;0.30;;;18.60;70.70;;;;;;5017760;28;20412;-68
2021/10/21 10:35:08;;;;;;;0.30;0.30;;;19.20;69.90;;;;;;5016164;28;20937;-68
2021/10/21 10:37:47;;;;;;;0.40;0.40;;;20.00;65.20;;;;;;5017634;28;20414;-68
2021/10/21 10:40:13;;;;;;;0.30;0.30;;;20.00;60.30;;;;;;5017390;28;20975;-67
2021/10/21 10:42:42;;;;;;;0.30;0.30;;;19.40;60.90;;;;;;5017517;28;20410;-68
2021/10/21 10:45:10;;;;;;;0.30;0.30;;;18.60;62.80;;;;;;5017482;28;20868;-67
2021/10/21 10:47:44;;;;;;;0.30;0.30;;;17.90;63.90;;;;;;5017584;28;20834;-68
2021/10/21 10:50:22;;;;;;;0.30;0.30;;;17.40;66.40;;;;;;5017311;28;20913;-67
2021/10/21 10:53:06;;;;;;;0.30;0.30;;;16.70;66.00;;;;;;5017324;28;20398;-67
2021/10/21 10:55:44;;;;;;;0.40;0.40;;;16.30;71.30;;;;;;5017191;28;20401;-67
2021/10/21 10:58:16;;;;;;;0.30;0.30;;;16.00;70.00;;;;;;5017535;28;20409;-68
2021/10/21 11:00:51;;;;;;;0.30;0.30;;;15.70;71.10;;;;;;5017098;28;20573;-67
2021/10/21 11:03:32;;;;;;;0.30;0.30;;;15.60;72.50;;;;;;5017381;28;20460;-66
2021/10/21 11:06:12;;;;;;;0.30;0.30;;;15.50;71.20;;;;;;5017021;28;20406;-68
2021/10/21 11:09:02;;;;;;;0.30;0.30;;;15.30;72.60;;;;;;5017268;28;20409;-67
2021/10/21 11:11:41;;;;;;;0.30;0.30;;;15.10;73.70;;;;;;5017101;28;20434;-68
2021/10/21 11:14:08;;;;;;;0.30;0.30;;;15.20;73.00;;;;;;5017215;28;20394;-68
2021/10/21 11:16:55;;;;;;;0.30;0.30;;;15.30;75.60;;;;;;5016620;28;20409;-68
2021/10/21 11:19:41;;;;;;;0.30;0.30;;;15.20;71.20;;;;;;5017254;28;20398;-66
2021/10/21 11:22:08;;;;;;;0.30;0.30;;;15.30;72.10;;;;;;5016794;28;20502;-67
2021/10/21 11:24:50;;;;;;;0.30;0.30;;;15.70;77.90;;;;;;5016902;28;20393;-68
2021/10/21 11:27:25;;;;;;;0.30;0.30;;;15.80;70.70;;;;;;5017180;28;20398;-66
2021/10/21 11:29:52;;;;;;;0.30;0.30;;;15.60;71.80;;;;;;5016640;28;20484;-67
2021/10/21 11:32:20;;;;;;;0.30;0.30;;;15.90;70.90;;;;;;5016732;28;20920;-68
2021/10/21 11:34:51;;;;;;;0.30;0.30;;;16.30;70.30;;;;;;5016615;28;20495;-68
2021/10/21 11:37:39;;;;;;;0.30;0.30;;;16.40;68.50;;;;;;5016699;28;20456;-67
2021/10/21 11:40:08;;;;;;;0.30;0.30;;;16.50;73.00;;;;;;5016322;28;20426;-67
2021/10/21 11:45:18;;;;;;;0.30;0.30;;;16.40;68.00;;;;;;5016484;28;20457;-68
2021/10/21 11:47:45;;;;;;;0.30;0.30;;;16.40;72.90;;;;;;5016499;28;20410;-68
2021/10/21 11:50:11;;;;;;;0.30;0.30;;;16.30;67.90;;;;;;5015946;28;20466;-66
2021/10/21 11:52:44;;;;;;;0.30;0.30;;;16.20;68.90;;;;;;5016219;28;20429;-66
2021/10/21 11:55:20;;;;;;;0.30;0.30;;;16.20;71.20;;;;;;5016157;28;20407;-67
2021/10/21 11:57:46;;;;;;;0.30;0.30;;;16.20;69.20;;;;;;5015138;28;20493;-68
2021/10/21 12:00:17;;;;;;;0.40;0.40;;;16.10;72.50;;;;;;5016247;28;21062;-69
2021/10/21 12:02:43;;;;;;;0.30;0.30;;;16.20;73.30;;;;;;5016104;28;20441;-69
2021/10/21 12:05:09;;;;;;;0.30;0.30;;;16.50;72.00;;;;;;5016166;28;20414;-68
2021/10/21 12:07:35;;;;;;;0.30;0.30;;;16.70;71.20;;;;;;5015637;28;20467;-69
2021/10/21 12:10:00;;;;;;;0.30;0.30;;;16.90;72.30;;;;;;5015376;28;20210;-67
2021/10/21 12:12:45;;;;;;;0.30;0.30;;;17.10;71.80;;;;;;5013695;28;20183;-67
2021/10/21 12:15:11;;;;;;;0.30;0.30;;;17.00;72.80;;;;;;5016163;28;20152;-69
2021/10/21 12:17:37;;;;;;;0.30;0.30;;;16.60;70.90;;;;;;5015801;28;20910;-67
2021/10/21 12:20:03;;;;;;;0.30;0.30;;;16.50;70.10;;;;;;5015674;28;20430;-69
2021/10/21 12:22:31;;;;;;;0.30;0.30;;;16.50;72.10;;;;;;5014415;28;20181;-69
2021/10/21 12:24:57;;;;;;;0.40;0.40;;;16.10;72.00;;;;;;5015527;28;20457;-68
2021/10/21 12:27:26;;;;;;;0.30;0.30;;;16.10;69.70;;;;;;5015709;28;20434;-68
2021/10/21 12:30:06;;;;;;;0.30;0.30;;;16.00;72.80;;;;;;5015366;28;20207;-67
2021/10/21 12:32:33;;;;;;;0.30;0.30;;;15.60;70.50;;;;;;5014252;28;20460;-67
2021/10/21 12:35:07;;;;;;;0.60;0.60;;;15.20;71.90;;;;;;5015363;28;20769;-68
2021/10/21 12:37:41;;;;;;;0.40;0.40;;;15.00;70.20;;;;;;5015618;28;20406;-69
2021/10/21 12:40:12;;;;;;;0.30;0.30;;;14.70;70.80;;;;;;5015762;28;20787;-66
2021/10/21 12:42:38;;;;;;;0.30;0.30;;;14.50;71.40;;;;;;5015322;28;20772;-69
2021/10/21 12:45:04;;;;;;;0.40;0.40;;;14.40;72.70;;;;;;5013886;28;20419;-68
2021/10/21 12:47:32;;;;;;;0.30;0.30;;;14.20;73.20;;;;;;5015298;28;20439;-69
2021/10/21 12:50:04;;;;;;;0.30;0.30;;;14.00;72.60;;;;;;5015042;28;20859;-68
2021/10/21 12:52:34;;;;;;;0.30;0.30;;;14.10;72.60;;;;;;5014602;28;20798;-67
2021/10/21 12:55:32;;;;;;;0.30;0.30;;;13.90;73.20;;;;;;5014998;28;20398;-68
2021/10/21 12:58:04;;;;;;;0.30;0.30;;;14.00;71.40;;;;;;5015016;28;20934;-67
2021/10/21 13:00:39;;;;;;;0.30;0.30;;;14.10;76.00;;;;;;5015050;28;20763;-67